DB0SVX Weather Reports


Display with metric or nautical units.
time (UTC)temp
F
wind
direction
speed
MPH
gust
MPH
rain 1hr
in
rain 24hr
in
rain mn
in
humidity
%
barometer
mb
20240718044003 55 112 0.0 0.0 0.00 2.52 0.00 949.7
20240718042503 55 112 0.0 0.0 0.00 2.52 0.00 949.5
20240718041003 54 112 2.0 0.0 0.00 2.52 0.00 949.5
20240718035503 54 112 0.0 0.0 0.00 2.52 0.00 949.5
20240718034003 54 112 0.0 0.0 0.00 2.52 0.00 949.5
20240718032503 54 112 0.0 0.0 0.00 2.52 0.00 949.5
20240718031003 54 112 0.0 0.0 0.00 2.52 0.00 949.7
20240718025503 54 112 0.0 0.0 0.00 2.52 0.00 949.5
20240718024003 54 112 0.0 0.0 0.00 2.52 0.00 949.5
20240718022503 54 112 0.0 0.0 0.00 2.52 0.00 949.7
20240718021003 55 112 0.0 0.0 0.00 2.52 0.00 949.5
20240718015503 54 112 0.0 0.0 0.00 2.52 0.00 949.7
20240718014003 55 112 0.0 0.0 0.00 2.52 0.00 949.9
20240718012503 55 112 0.0 0.0 0.00 2.52 0.00 950.0
20240718011003 55 112 0.0 0.0 0.00 2.52 0.00 950.0
20240718005503 55 112 0.0 0.0 0.00 2.52 0.00 950.2
20240718004003 55 112 0.0 0.0 0.00 2.52 0.00 950.4
20240718002503 56 112 0.0 0.0 0.00 2.52 0.00 950.2
20240718001003 56 135 0.0 0.0 0.00 2.52 0.00 10 950.5
20240717235503 56 135 0.0 0.0 0.00 2.52 0.00 11 950.5
20240717234003 56 135 0.0 0.0 0.00 2.52 0.00 12 950.5
20240717232503 56 135 0.0 0.0 0.00 2.52 0.00 14 950.5
20240717231003 57 157 0.0 0.0 0.00 2.52 0.00 17 950.7
20240717225503 57 157 0.0 0.0 0.00 2.52 0.00 19 950.9
20240717224003 57 157 0.0 0.0 0.00 2.52 0.00 21 950.7
20240717222503 57 157 0.0 0.0 0.00 2.52 0.00 24 950.9
20240717221003 57 157 0.0 0.0 0.00 2.52 0.00 26 951.0
20240717215503 58 157 0.0 0.0 0.00 2.52 0.00 28 950.9
20240717214003 58 157 0.0 0.0 0.00 2.52 0.00 31 951.2
20240717212503 59 157 0.0 0.0 0.00 2.52 0.00 33 951.0
20240717211003 59 157 0.0 0.0 0.00 2.52 0.00 37 951.2
20240717205503 59 157 0.0 0.0 0.00 2.52 0.00 40 951.2
20240717204003 60 157 0.0 0.0 0.00 2.52 0.00 43 951.2
20240717202503 60 157 0.0 0.0 0.00 2.52 0.00 44 951.2
20240717201003 62 157 0.0 0.0 0.00 2.52 0.00 45 951.2
20240717195503 63 157 0.0 0.0 0.00 2.52 0.00 47 951.2
20240717194003 64 157 0.0 0.0 0.00 2.52 0.00 48 951.2
20240717192503 65 157 0.0 0.0 1.68 2.52 0.00 49 951.0
20240717191003 67 157 0.0 0.0 1.86 2.52 0.00 49 951.0
20240717185503 67 157 0.0 0.0 0.45 2.52 0.00 49 951.0
20240717184003 68 157 5.0 0.0 2.33 2.52 0.00 49 950.7
20240717182503 70 135 0.0 0.0 2.96 2.52 0.00 48 950.5
20240717181003 73 180 6.0 0.0 0.11 2.52 0.00 46 950.4
20240717175503 75 202 8.0 0.0 3.43 1.26 0.00 44 950.4
20240717174003 82 180 5.0 0.0 3.38 1.26 0.00 38 950.5
20240717172503 82 202 0.0 0.0 0.00 0.00 0.00 39 950.4
20240717171003 83 225 1.0 0.0 0.00 0.00 0.00 37 950.2
20240717165503 90 202 0.0 0.0 0.00 0.00 0.00 32 950.2
20240717164003 91 202 0.0 0.0 0.00 0.00 0.00 32 950.2
20240717162503 85 180 3.0 0.0 0.00 0.00 0.00 37 950.5
20240717161003 79 180 1.0 0.0 0.00 0.00 0.00 41 950.2
20240717155503 77 135 2.0 0.0 0.00 0.00 0.00 43 950.5
20240717154003 77 180 3.0 0.0 0.00 0.00 0.00 43 950.2
20240717152503 77 90 0.0 0.0 0.00 0.00 0.00 42 950.2
20240717151003 80 202 8.0 0.0 0.00 0.00 0.00 40 950.5
20240717145503 81 202 0.0 0.0 0.00 0.00 0.00 38 950.5
20240717144003 82 112 2.0 0.0 0.00 0.00 0.00 38 950.4
20240717142503 79 112 6.0 0.0 0.00 0.00 0.00 40 950.5
20240717141003 77 112 0.0 0.0 0.00 0.00 0.00 42 950.5
20240717135503 76 112 0.0 0.0 0.00 0.00 0.00 42 950.5
20240717134003 77 180 2.0 0.0 0.00 0.00 0.00 42 950.5
20240717132503 78 112 0.0 0.0 0.00 0.00 0.00 41 950.5
20240717131003 77 112 0.0 0.0 0.00 0.00 0.00 42 950.2
20240717125503 75 202 0.0 0.0 0.00 0.00 0.00 43 950.4
20240717124003 74 90 0.0 0.0 0.00 0.00 0.00 44 950.2
20240717122503 74 112 4.0 0.0 0.00 0.00 0.00 45 950.2
20240717121003 74 157 0.0 0.0 0.00 0.00 0.00 44 950.2
20240717115503 75 90 0.0 0.0 0.00 0.00 0.00 42 950.2
20240717114003 77 112 5.0 0.0 0.00 0.00 0.00 40 950.0
20240717112503 78 112 0.0 0.0 0.00 0.00 0.00 40 950.0
20240717111003 78 112 0.0 0.0 0.00 0.00 0.00 40 950.2
20240717105503 81 157 0.0 0.0 0.00 0.00 0.00 37 950.2
20240717104003 84 90 5.0 0.0 0.00 0.00 0.00 35 950.2
20240717102503 78 45 1.0 0.0 0.00 0.00 0.00 39 950.2
20240717101003 76 112 2.0 0.0 0.00 0.00 0.00 40 950.2
20240717095503 76 112 2.0 0.0 0.00 0.00 0.00 41 950.0
20240717094003 77 112 2.0 0.0 0.00 0.00 0.00 39 950.2
20240717092503 78 157 5.0 0.0 0.00 0.00 0.00 38 950.2
20240717091003 78 67 0.0 0.0 0.00 0.00 0.00 39 950.2
20240717085503 77 202 0.0 0.0 0.00 0.00 0.00 39 950.2
20240717084003 76 90 0.0 0.0 0.00 0.00 0.00 40 950.2
20240717082503 75 112 0.0 0.0 0.00 0.00 0.00 40 950.0
20240717081003 73 112 0.0 0.0 0.00 0.00 0.00 40 950.0
20240717075503 70 112 5.0 0.0 0.00 0.00 0.00 41 950.0
20240717074003 68 315 0.0 0.0 0.00 0.00 0.00 42 950.0
20240717072503 67 315 0.0 0.0 0.00 0.00 0.00 42 950.0
20240717071003 68 0 0.0 0.0 0.00 0.00 0.00 41 950.0
20240717065503 68 0 0.0 0.0 0.00 0.00 0.00 40 950.0
20240717064003 67 0 0.0 0.0 0.00 0.00 0.00 39 950.0
20240717062913 66 337 0.0 0.0 0.00 0.00 0.00 38 949.7
20240717061003 64 337 0.0 0.0 0.00 0.00 0.00 38 949.7
20240717055503 64 22 0.0 0.0 0.00 0.00 0.00 37 949.5
20240717054003 64 22 0.0 0.0 0.00 0.00 0.00 35 949.5
20240717052503 64 22 0.0 0.0 0.00 0.00 0.00 34 949.4
20240717051003 64 22 0.0 0.0 0.00 0.00 0.00 33 949.2
20240717045503 63 22 0.0 0.0 0.00 0.10 0.00 33 949.0